createdAt,value
2019-05-09T00:01:28.214Z,5.37
2019-05-09T00:02:59.492Z,6.87
2019-05-09T00:05:33.474Z,6.77
2019-05-09T00:08:06.950Z,5.57
2019-05-09T00:10:41.767Z,8.03
2019-05-09T00:13:13.654Z,7.03
2019-05-09T00:15:49.067Z,6.90
2019-05-09T00:18:23.302Z,7.30
2019-05-09T00:21:04.082Z,7.30
2019-05-09T00:23:38.414Z,5.73
2019-05-09T00:26:20.236Z,5.07
2019-05-09T00:28:50.212Z,5.23
2019-05-09T00:31:48.865Z,7.07
2019-05-09T00:34:35.696Z,8.97
2019-05-09T00:37:06.839Z,6.77
2019-05-09T00:39:43.429Z,10.77
2019-05-09T00:42:18.887Z,7.13
2019-05-09T00:45:00.118Z,6.90
2019-05-09T00:47:33.985Z,5.87
2019-05-09T00:50:13.743Z,6.73
2019-05-09T00:52:49.675Z,6.57
2019-05-09T00:55:38.857Z,4.00
2019-05-09T00:58:13.551Z,5.60
2019-05-09T01:00:48.682Z,7.33
2019-05-09T01:03:20.003Z,7.97
2019-05-09T01:05:54.166Z,6.27
2019-05-09T01:08:28.405Z,7.83
2019-05-09T01:11:09.366Z,7.87
2019-05-09T01:13:36.592Z,5.90
2019-05-09T01:16:07.785Z,8.77
2019-05-09T01:18:43.781Z,9.83
2019-05-09T01:21:16.664Z,6.23
2019-05-09T01:23:53.883Z,7.87
2019-05-09T01:26:29.741Z,10.10
2019-05-09T01:29:00.719Z,5.67
2019-05-09T01:31:34.956Z,6.37
2019-05-09T01:34:29.348Z,7.13
2019-05-09T01:37:13.908Z,7.63
2019-05-09T01:39:46.370Z,5.70
2019-05-09T01:42:19.926Z,6.87
2019-05-09T01:44:58.524Z,6.30
2019-05-09T01:47:37.244Z,7.43
2019-05-09T01:50:09.327Z,5.10
2019-05-09T01:52:55.402Z,8.27
2019-05-09T01:55:31.528Z,5.10
2019-05-09T01:58:03.263Z,7.20
2019-05-09T02:00:36.350Z,11.17
2019-05-09T02:03:09.232Z,7.13
2019-05-09T02:05:44.868Z,8.10
2019-05-09T02:08:17.719Z,10.43
2019-05-09T02:10:54.227Z,6.47
2019-05-09T02:13:45.860Z,7.73
2019-05-09T02:16:25.926Z,5.90
2019-05-09T02:19:07.444Z,5.40
2019-05-09T02:21:46.016Z,10.50
2019-05-09T02:24:17.545Z,9.90
2019-05-09T02:26:53.195Z,7.23
2019-05-09T02:29:43.814Z,4.93
2019-05-09T02:32:06.139Z,4.93
2019-05-09T02:34:59.221Z,8.50
2019-05-09T02:37:30.886Z,5.73
2019-05-09T02:40:17.996Z,8.07
2019-05-09T02:42:43.665Z,5.33
2019-05-09T02:45:28.280Z,5.00
2019-05-09T02:48:11.929Z,5.83
2019-05-09T02:50:44.258Z,5.77
2019-05-09T02:53:18.606Z,8.27
2019-05-09T02:55:49.622Z,6.13
2019-05-09T02:58:28.010Z,7.30
2019-05-09T03:01:21.277Z,5.17
2019-05-09T03:04:01.799Z,10.53
2019-05-09T03:06:30.425Z,9.47
2019-05-09T03:09:10.291Z,7.77
2019-05-09T03:11:48.572Z,6.77
2019-05-09T03:14:19.444Z,5.93
2019-05-09T03:16:51.292Z,5.93
2019-05-09T03:19:29.419Z,5.23
2019-05-09T03:21:58.431Z,5.37
2019-05-09T03:24:28.867Z,6.27
2019-05-09T03:27:08.377Z,5.77
2019-05-09T03:29:44.789Z,9.20
2019-05-09T03:32:19.474Z,5.53
2019-05-09T03:34:53.081Z,7.00
2019-05-09T03:37:29.879Z,6.03
2019-05-09T03:40:15.531Z,7.40
2019-05-09T03:42:46.037Z,6.40
2019-05-09T03:45:27.260Z,9.03
2019-05-09T03:48:19.949Z,6.97
2019-05-09T03:51:08.981Z,6.57
2019-05-09T03:53:41.570Z,5.97
2019-05-09T03:56:34.804Z,8.07
2019-05-09T03:59:10.008Z,7.43
2019-05-09T04:01:41.299Z,5.57
2019-05-09T04:04:21.881Z,8.33
2019-05-09T04:06:54.249Z,8.07
2019-05-09T04:09:27.341Z,7.80
2019-05-09T04:12:00.223Z,8.07
2019-05-09T04:14:32.270Z,7.90
2019-05-09T04:17:09.064Z,7.57
2019-05-09T04:19:40.500Z,4.47
2019-05-09T04:22:18.300Z,8.50
2019-05-09T04:24:52.768Z,7.53
2019-05-09T04:27:29.892Z,6.40
2019-05-09T04:30:09.443Z,8.40
2019-05-09T04:32:41.259Z,8.73
2019-05-09T04:35:22.439Z,5.50
2019-05-09T04:37:55.177Z,9.70
2019-05-09T04:40:42.198Z,5.87
2019-05-09T04:43:35.565Z,6.53
2019-05-09T04:45:47.307Z,8.57
2019-05-09T04:48:42.231Z,7.57
2019-05-09T04:51:13.695Z,8.63
2019-05-09T04:53:48.393Z,11.30
2019-05-09T04:56:39.589Z,8.37
2019-05-09T04:59:10.316Z,12.60
2019-05-09T05:02:01.495Z,4.60
2019-05-09T05:04:37.344Z,5.97
2019-05-09T05:07:07.599Z,5.97
2019-05-09T05:09:43.329Z,6.50
2019-05-09T05:12:21.727Z,7.80
2019-05-09T05:15:07.943Z,8.20
2019-05-09T05:17:30.758Z,9.57
2019-05-09T05:20:08.595Z,7.10
2019-05-09T05:23:00.279Z,8.37
2019-05-09T05:25:38.128Z,8.00
2019-05-09T05:28:09.735Z,7.03
2019-05-09T05:30:47.650Z,7.00
2019-05-09T05:33:45.891Z,7.27
2019-05-09T05:36:15.309Z,9.23
2019-05-09T05:38:48.425Z,6.30
2019-05-09T05:41:18.414Z,8.47
2019-05-09T05:43:57.951Z,8.13
2019-05-09T05:46:48.292Z,9.97
2019-05-09T05:49:19.485Z,7.60
2019-05-09T05:51:52.079Z,15.50
2019-05-09T05:54:27.668Z,7.20
2019-05-09T05:57:00.188Z,9.10
2019-05-09T05:59:32.496Z,6.10
2019-05-09T06:02:08.345Z,8.07
2019-05-09T06:04:43.747Z,6.43
2019-05-09T06:07:18.349Z,9.43
2019-05-09T06:09:48.153Z,6.28
2019-05-09T06:12:19.125Z,9.60
2019-05-09T06:14:51.852Z,8.83
2019-05-09T06:17:24.765Z,5.97
2019-05-09T06:19:58.902Z,6.08
2019-05-09T06:22:29.859Z,8.80
2019-05-09T06:25:02.364Z,7.87
2019-05-09T06:27:34.561Z,12.07
2019-05-09T06:30:08.442Z,9.08
2019-05-09T06:32:47.683Z,10.13
2019-05-09T06:35:28.255Z,9.23
2019-05-09T06:37:58.446Z,8.33
2019-05-09T06:40:32.371Z,7.15
2019-05-09T06:43:19.792Z,7.22
2019-05-09T06:46:22.297Z,9.38
2019-05-09T06:49:20.009Z,7.37
2019-05-09T06:51:39.249Z,4.92
2019-05-09T06:54:08.531Z,6.90
2019-05-09T06:56:43.387Z,7.33
2019-05-09T06:59:15.606Z,7.15
2019-05-09T07:02:02.190Z,7.00
2019-05-09T07:04:37.990Z,12.80
2019-05-09T07:07:18.127Z,7.92
2019-05-09T07:10:08.112Z,8.65
2019-05-09T07:12:43.925Z,6.17
2019-05-09T07:15:13.708Z,9.58
2019-05-09T07:17:43.358Z,8.05
2019-05-09T07:20:19.141Z,5.97
2019-05-09T07:22:52.363Z,11.95
2019-05-09T07:25:42.706Z,6.42
2019-05-09T07:28:18.017Z,10.80
2019-05-09T07:31:21.526Z,7.28
2019-05-09T07:34:13.526Z,7.87
2019-05-09T07:36:47.722Z,4.78
2019-05-09T07:39:27.578Z,8.58
2019-05-09T07:41:59.502Z,4.55
2019-05-09T07:44:45.263Z,11.95
2019-05-09T07:47:07.563Z,5.37
2019-05-09T07:49:40.997Z,7.70
2019-05-09T07:52:13.971Z,10.30
2019-05-09T07:54:45.081Z,8.23
2019-05-09T07:57:25.325Z,10.32
2019-05-09T07:59:55.041Z,13.10
2019-05-09T08:02:28.348Z,9.23
2019-05-09T08:05:02.943Z,6.80
2019-05-09T08:07:38.383Z,11.03
2019-05-09T08:10:08.871Z,8.55
2019-05-09T08:12:41.829Z,11.33
2019-05-09T08:15:23.952Z,7.62
2019-05-09T08:18:00.565Z,15.70
2019-05-09T08:20:30.619Z,11.38
2019-05-09T08:23:10.722Z,6.92
2019-05-09T08:25:48.428Z,7.90
2019-05-09T08:28:20.183Z,12.63
2019-05-09T08:30:49.271Z,13.50
2019-05-09T08:33:24.987Z,10.38
2019-05-09T08:35:52.767Z,5.35
2019-05-09T08:38:24.557Z,13.88
2019-05-09T08:41:10.771Z,14.87
2019-05-09T08:43:41.303Z,9.75
2019-05-09T08:46:13.844Z,11.03
2019-05-09T08:48:50.538Z,7.62
2019-05-09T08:51:52.107Z,13.22
2019-05-09T08:54:30.599Z,9.60
2019-05-09T08:57:00.550Z,16.77
2019-05-09T08:59:33.818Z,11.85
2019-05-09T09:02:14.907Z,12.73
2019-05-09T09:04:40.181Z,11.00
2019-05-09T09:07:18.738Z,11.73
2019-05-09T09:09:51.494Z,8.20
2019-05-09T09:12:30.390Z,11.40
2019-05-09T09:14:58.505Z,13.30
2019-05-09T09:17:27.927Z,14.78
2019-05-09T09:20:00.408Z,13.90
2019-05-09T09:22:30.148Z,7.72
2019-05-09T09:25:07.664Z,6.60
2019-05-09T09:27:41.655Z,11.05
2019-05-09T09:30:20.770Z,9.78
2019-05-09T09:32:44.497Z,6.72
2019-05-09T09:35:18.705Z,8.63
2019-05-09T09:38:00.382Z,8.35
2019-05-09T09:40:41.676Z,8.75
2019-05-09T09:43:17.634Z,9.83
2019-05-09T09:46:07.330Z,5.25
2019-05-09T09:48:25.246Z,4.85
2019-05-09T09:51:04.497Z,10.70
2019-05-09T09:53:35.323Z,10.38
2019-05-09T09:56:04.994Z,6.33
2019-05-09T09:58:34.799Z,4.03
2019-05-09T10:01:18.777Z,7.40
2019-05-09T10:04:15.509Z,4.58
2019-05-09T10:06:33.257Z,9.65
2019-05-09T10:09:05.049Z,5.00
2019-05-09T10:11:36.935Z,8.00
2019-05-09T10:14:08.939Z,7.60
2019-05-09T10:16:52.612Z,7.30
2019-05-09T10:19:48.155Z,9.63
2019-05-09T10:22:25.789Z,6.67
2019-05-09T10:24:58.376Z,9.15
2019-05-09T10:27:29.067Z,6.33
2019-05-09T10:30:00.383Z,9.50
2019-05-09T10:32:32.391Z,9.65
2019-05-09T10:35:01.975Z,9.25
2019-05-09T10:37:34.727Z,4.37
2019-05-09T10:40:11.099Z,4.83
2019-05-09T10:42:50.886Z,4.65
2019-05-09T10:45:58.427Z,5.45
2019-05-09T10:48:33.243Z,9.15
2019-05-09T10:51:10.468Z,5.22
2019-05-09T10:53:37.500Z,5.75
2019-05-09T10:56:09.100Z,5.87
2019-05-09T10:58:42.039Z,4.80
2019-05-09T11:01:18.261Z,5.10
2019-05-09T11:03:48.715Z,10.63
2019-05-09T11:06:18.745Z,8.15
2019-05-09T11:08:50.222Z,5.67
2019-05-09T11:11:20.972Z,5.08
2019-05-09T11:13:53.861Z,5.70
2019-05-09T11:16:39.668Z,3.98
2019-05-09T11:19:00.146Z,7.90
2019-05-09T11:21:41.640Z,4.50
2019-05-09T11:24:02.479Z,4.97
2019-05-09T11:26:32.153Z,6.58
2019-05-09T11:29:03.491Z,5.22
2019-05-09T11:31:34.984Z,7.58
2019-05-09T11:34:08.979Z,5.12
2019-05-09T11:36:39.752Z,9.70
2019-05-09T11:39:12.914Z,6.78
2019-05-09T11:41:43.744Z,8.60
2019-05-09T11:44:18.289Z,5.40
2019-05-09T11:46:48.853Z,4.47
2019-05-09T11:49:20.062Z,7.03
2019-05-09T11:51:51.115Z,3.47
2019-05-09T11:54:21.913Z,4.85
2019-05-09T11:56:52.783Z,3.87
2019-05-09T11:59:22.443Z,4.92
2019-05-09T12:01:54.224Z,4.37
2019-05-09T12:04:29.025Z,4.12
2019-05-09T12:06:58.715Z,4.85
2019-05-09T12:09:28.998Z,6.20
2019-05-09T12:12:00.704Z,7.03
2019-05-09T12:14:38.103Z,6.87
2019-05-09T12:17:08.366Z,5.75
2019-05-09T12:19:43.182Z,4.65
2019-05-09T12:22:19.115Z,4.05
2019-05-09T12:24:53.876Z,5.42
2019-05-09T12:27:28.236Z,5.53
2019-05-09T12:30:01.716Z,9.80
2019-05-09T12:32:38.329Z,3.80
2019-05-09T12:35:20.776Z,5.45
2019-05-09T12:38:10.305Z,10.18
2019-05-09T12:40:38.982Z,4.17
2019-05-09T12:43:30.590Z,6.35
2019-05-09T12:46:12.014Z,5.83
2019-05-09T12:48:50.569Z,4.87
2019-05-09T12:51:19.596Z,5.40
2019-05-09T12:53:58.314Z,5.72
2019-05-09T12:56:29.916Z,3.52
2019-05-09T12:59:01.914Z,3.62
2019-05-09T13:01:39.859Z,6.22
2019-05-09T13:04:03.038Z,6.83
2019-05-09T13:06:37.997Z,3.52
2019-05-09T13:09:08.468Z,8.65
2019-05-09T13:11:44.854Z,3.77
2019-05-09T13:14:15.726Z,5.80
2019-05-09T13:17:08.241Z,9.65
2019-05-09T13:19:48.030Z,7.08
2019-05-09T13:22:20.579Z,11.40
2019-05-09T13:24:52.611Z,22.10
2019-05-09T13:27:28.636Z,6.47
2019-05-09T13:30:08.149Z,9.25
2019-05-09T13:32:57.562Z,9.10
2019-05-09T13:35:30.905Z,10.50
2019-05-09T13:38:22.507Z,10.85
2019-05-09T13:41:11.868Z,6.20
2019-05-09T13:43:57.681Z,7.00
2019-05-09T13:46:48.759Z,6.55
2019-05-09T13:49:28.999Z,9.35
2019-05-09T13:52:04.394Z,6.85
2019-05-09T13:54:38.186Z,7.58
2019-05-09T13:57:10.216Z,7.78
2019-05-09T13:59:44.285Z,9.65
2019-05-09T14:02:15.645Z,8.43
2019-05-09T14:04:48.811Z,7.45
2019-05-09T14:07:19.894Z,10.58
2019-05-09T14:09:51.115Z,8.08
2019-05-09T14:12:31.106Z,6.65
2019-05-09T14:15:08.549Z,6.60
2019-05-09T14:17:48.165Z,8.95
2019-05-09T14:20:14.392Z,5.22
2019-05-09T14:22:44.036Z,6.80
2019-05-09T14:25:20.696Z,7.12
2019-05-09T14:27:52.449Z,10.15
2019-05-09T14:30:24.266Z,3.72
2019-05-09T14:33:01.955Z,7.87
2019-05-09T14:35:41.111Z,6.28
2019-05-09T14:38:22.930Z,7.35
2019-05-09T14:40:51.129Z,6.62
2019-05-09T14:43:34.515Z,8.38
2019-05-09T14:46:11.478Z,8.08
2019-05-09T14:48:58.567Z,5.50
2019-05-09T14:51:28.372Z,7.50
2019-05-09T14:54:08.064Z,12.88
2019-05-09T14:56:41.175Z,5.92
2019-05-09T14:59:10.177Z,5.58
2019-05-09T15:01:43.634Z,10.45
2019-05-09T15:04:11.264Z,6.30
2019-05-09T15:06:43.162Z,7.28
2019-05-09T15:09:18.400Z,5.70
2019-05-09T15:11:53.412Z,7.58
2019-05-09T15:14:29.166Z,7.72
2019-05-09T15:17:04.004Z,7.97
2019-05-09T15:19:38.580Z,8.15
2019-05-09T15:22:10.887Z,11.12
2019-05-09T15:24:43.871Z,8.90
2019-05-09T15:27:18.370Z,8.70
2019-05-09T15:29:58.236Z,5.37
2019-05-09T15:32:23.849Z,7.97
2019-05-09T15:34:58.232Z,9.30
2019-05-09T15:37:42.012Z,12.13
2019-05-09T15:40:20.209Z,8.63
2019-05-09T15:42:48.788Z,4.05
2019-05-09T15:45:23.946Z,3.92
2019-05-09T15:47:59.431Z,4.20
2019-05-09T15:50:38.142Z,7.97
2019-05-09T15:53:08.676Z,8.23
2019-05-09T15:55:39.491Z,6.62
2019-05-09T15:58:21.898Z,6.60
2019-05-09T16:00:51.872Z,5.42
2019-05-09T16:03:28.974Z,7.90
2019-05-09T16:06:00.955Z,4.65
2019-05-09T16:08:41.912Z,4.25
2019-05-09T16:11:18.849Z,4.33
2019-05-09T16:13:51.185Z,4.37
2019-05-09T16:16:42.419Z,7.80
2019-05-09T16:19:18.481Z,3.62
2019-05-09T16:22:02.006Z,3.95
2019-05-09T16:25:20.786Z,7.33
2019-05-09T16:27:29.078Z,6.12
2019-05-09T16:30:08.835Z,2.92
2019-05-09T16:32:50.894Z,4.25
2019-05-09T16:35:28.469Z,6.28
2019-05-09T16:38:06.895Z,4.70
2019-05-09T16:41:18.511Z,6.08
2019-05-09T16:44:12.609Z,5.70
2019-05-09T16:53:08.823Z,6.20
2019-05-09T16:54:44.573Z,3.98
2019-05-09T16:56:42.115Z,3.62
2019-05-09T17:02:48.089Z,6.97
2019-05-09T17:05:21.492Z,6.17
2019-05-09T17:07:53.877Z,4.75
2019-05-09T17:10:41.327Z,8.13
2019-05-09T17:13:48.350Z,5.92
2019-05-09T17:16:40.390Z,5.17
2019-05-09T17:19:11.994Z,6.42
2019-05-09T17:21:58.420Z,3.77
2019-05-09T17:24:32.586Z,8.65
2019-05-09T17:27:13.662Z,4.58
2019-05-09T17:29:55.439Z,6.70
2019-05-09T17:33:20.790Z,5.45
2019-05-09T17:35:18.618Z,4.40
2019-05-09T17:38:04.594Z,7.12
2019-05-09T17:40:42.260Z,5.85
2019-05-09T17:43:20.752Z,5.72
2019-05-09T17:45:50.604Z,6.28
2019-05-09T17:48:28.256Z,5.50
2019-05-09T17:51:09.023Z,4.45
2019-05-09T17:54:08.144Z,4.67
2019-05-09T17:56:57.214Z,3.80
2019-05-09T17:59:24.498Z,5.95
2019-05-09T18:01:58.837Z,5.92
2019-05-09T18:04:31.502Z,5.87
2019-05-09T18:07:01.236Z,4.72
2019-05-09T18:09:41.095Z,8.68
2019-05-09T18:12:29.387Z,5.25
2019-05-09T18:14:57.146Z,5.90
2019-05-09T18:17:47.714Z,5.53
2019-05-09T18:20:20.817Z,9.30
2019-05-09T18:22:53.964Z,9.33
2019-05-09T18:25:30.901Z,7.55
2019-05-09T18:28:03.595Z,6.92
2019-05-09T18:31:50.342Z,6.33
2019-05-09T18:33:48.348Z,7.10
2019-05-09T18:36:24.039Z,9.98
2019-05-09T18:39:01.921Z,18.10
2019-05-09T18:41:33.599Z,31.15
2019-05-09T18:44:03.223Z,16.80
2019-05-09T18:46:33.237Z,10.28
2019-05-09T18:49:03.060Z,11.53
2019-05-09T18:51:36.934Z,9.75
2019-05-09T18:54:17.662Z,7.83
2019-05-09T18:56:52.776Z,8.90
2019-05-09T18:59:40.517Z,7.20
2019-05-09T19:02:20.299Z,8.15
2019-05-09T19:04:47.384Z,8.75
2019-05-09T19:07:22.626Z,7.92
2019-05-09T19:09:55.794Z,7.75
2019-05-09T19:12:31.470Z,9.20
2019-05-09T19:15:05.944Z,9.80
2019-05-09T19:17:54.438Z,6.60
2019-05-09T19:20:44.439Z,7.05
2019-05-09T19:23:27.373Z,6.20
2019-05-09T19:25:55.420Z,9.10
2019-05-09T19:28:29.160Z,7.83
2019-05-09T19:31:03.135Z,10.95
2019-05-09T19:33:41.501Z,12.13
2019-05-09T19:36:15.577Z,8.08
2019-05-09T19:38:51.802Z,6.47
2019-05-09T19:41:25.306Z,10.90
2019-05-09T19:43:56.906Z,8.00
2019-05-09T19:46:27.885Z,8.63
2019-05-09T19:49:02.487Z,9.15
2019-05-09T19:51:35.235Z,7.67
2019-05-09T19:54:09.312Z,8.57
2019-05-09T19:56:42.303Z,9.50
2019-05-09T19:59:14.083Z,7.62
2019-05-09T20:01:45.608Z,8.33
2019-05-09T20:04:19.692Z,7.20
2019-05-09T20:06:51.371Z,10.03
2019-05-09T20:09:28.299Z,8.20
2019-05-09T20:12:09.744Z,8.93
2019-05-09T20:14:42.404Z,11.17
2019-05-09T20:17:13.762Z,10.00
2019-05-09T20:19:50.956Z,10.00
2019-05-09T20:22:28.171Z,9.07
2019-05-09T20:25:01.970Z,8.70
2019-05-09T20:27:32.761Z,10.30
2019-05-09T20:30:02.594Z,8.63
2019-05-09T20:32:35.337Z,9.97
2019-05-09T20:35:08.056Z,8.37
2019-05-09T20:37:41.300Z,7.50
2019-05-09T20:40:15.081Z,9.73
2019-05-09T20:42:46.403Z,9.18
2019-05-09T20:45:16.355Z,9.47
2019-05-09T20:47:52.345Z,7.40
2019-05-09T20:50:24.312Z,10.00
2019-05-09T20:53:09.192Z,9.33
2019-05-09T20:55:31.343Z,10.23
2019-05-09T20:58:01.536Z,12.03
2019-05-09T21:00:31.248Z,13.07
2019-05-09T21:03:01.114Z,10.77
2019-05-09T21:05:34.474Z,13.80
2019-05-09T21:08:04.283Z,14.47
2019-05-09T21:10:36.581Z,14.87
2019-05-09T21:13:06.506Z,14.47
2019-05-09T21:15:38.336Z,13.30
2019-05-09T21:18:09.557Z,15.53
2019-05-09T21:20:40.529Z,14.07
2019-05-09T21:23:24.746Z,14.83
2019-05-09T21:25:48.845Z,15.43
2019-05-09T21:28:24.633Z,14.77
2019-05-09T21:30:51.600Z,17.20
2019-05-09T21:33:26.334Z,15.53
2019-05-09T21:36:01.507Z,14.17
2019-05-09T21:38:31.148Z,15.13
2019-05-09T21:41:00.817Z,15.83
2019-05-09T21:43:35.627Z,16.33
2019-05-09T21:46:06.587Z,18.37
2019-05-09T21:48:38.663Z,14.63
2019-05-09T21:51:09.707Z,13.77
2019-05-09T21:53:41.922Z,15.97
2019-05-09T21:56:11.918Z,16.03
2019-05-09T21:58:41.510Z,18.00
2019-05-09T22:01:15.589Z,17.17
2019-05-09T22:03:45.712Z,15.00
2019-05-09T22:06:16.504Z,14.67
2019-05-09T22:08:49.727Z,15.43
2019-05-09T22:11:21.334Z,13.07
2019-05-09T22:13:55.513Z,15.57
2019-05-09T22:16:25.220Z,17.90
2019-05-09T22:18:54.772Z,16.63
2019-05-09T22:21:27.051Z,15.33
2019-05-09T22:24:01.529Z,16.57
2019-05-09T22:26:31.151Z,16.53
2019-05-09T22:29:00.776Z,17.07
2019-05-09T22:31:30.355Z,21.00
2019-05-09T22:34:02.247Z,18.17
2019-05-09T22:36:33.864Z,19.17
2019-05-09T22:39:03.304Z,15.60
2019-05-09T22:41:32.886Z,20.70
2019-05-09T22:44:02.411Z,18.53
2019-05-09T22:46:32.006Z,19.93
2019-05-09T22:49:01.708Z,20.70
2019-05-09T22:51:31.303Z,17.17
2019-05-09T22:54:12.284Z,14.80
2019-05-09T22:56:32.346Z,17.53
2019-05-09T22:59:01.967Z,16.17
2019-05-09T23:01:31.754Z,17.10
2019-05-09T23:04:01.265Z,16.10
2019-05-09T23:06:31.036Z,17.70
2019-05-09T23:09:00.596Z,19.67
2019-05-09T23:11:36.951Z,18.80
2019-05-09T23:14:10.215Z,20.03
2019-05-09T23:16:41.327Z,17.23
2019-05-09T23:19:15.955Z,21.43
2019-05-09T23:21:45.256Z,20.50
2019-05-09T23:24:28.002Z,19.67
2019-05-09T23:26:58.634Z,17.67
2019-05-09T23:29:29.540Z,20.47
2019-05-09T23:32:18.674Z,17.50
2019-05-09T23:34:49.966Z,16.93
2019-05-09T23:37:21.210Z,22.13
2019-05-09T23:40:07.505Z,16.23
2019-05-09T23:42:32.526Z,14.97
2019-05-09T23:45:02.485Z,16.27
2019-05-09T23:47:32.045Z,19.03
2019-05-09T23:50:01.840Z,21.07
2019-05-09T23:52:31.393Z,17.77
2019-05-09T23:55:18.692Z,20.83
2019-05-09T23:58:05.881Z,19.70
